Clayton, Washington
Current Conditions -  °F | °C
As of 1:53 AM on Thursday 23 Oct 2014 (Local Time) from KDEW Reporting Station
Overcast Overcast  
Wind Chill: 51°   Ceiling: 4200
Heat Index: 51°   Visibility: 9mi
Dew Point: 47°   Wind: 9mph
Humidity: 86%   Direction: 250°WSW
Pressure: 29.78"   Gusts: NA
Location:  47.99°N, 117.56°W
Report Text: KDEW 230853Z AUTO 25008KT 9SM BKN042 OVC050 11/08 A2978 RMK AO2 RAB13E29 SLP086 P0001 60003 T01060083 53006
Loading
Personal Weather Stations






























Interactive Weather Map New forecast layout! Learn more

10-Day Weather Forecast

Advertisements
Track Severe Weather on mobile